createdAt,value
2019-05-13T00:01:53.981Z,1.87
2019-05-13T00:04:24.219Z,1.40
2019-05-13T00:06:57.036Z,1.43
2019-05-13T00:09:24.837Z,1.43
2019-05-13T00:11:54.251Z,1.93
2019-05-13T00:14:23.997Z,1.27
2019-05-13T00:16:53.647Z,1.60
2019-05-13T00:22:00.412Z,1.67
2019-05-13T00:27:10.377Z,1.80
2019-05-13T00:29:39.761Z,1.57
2019-05-13T00:32:08.964Z,1.47
2019-05-13T00:34:37.914Z,1.87
2019-05-13T00:37:10.830Z,1.30
2019-05-13T00:39:37.793Z,1.60
2019-05-13T00:44:44.722Z,1.33
2019-05-13T00:47:13.830Z,1.40
2019-05-13T00:49:43.687Z,1.50
2019-05-13T00:52:14.255Z,1.70
2019-05-13T00:54:44.135Z,1.83
2019-05-13T00:57:13.393Z,1.57
2019-05-13T00:59:44.305Z,1.60
2019-05-13T01:04:53.536Z,2.13
2019-05-13T01:07:28.573Z,1.77
2019-05-13T01:09:53.865Z,1.83
2019-05-13T01:12:23.875Z,1.90
2019-05-13T01:17:34.016Z,1.97
2019-05-13T01:20:04.103Z,1.80
2019-05-13T01:25:14.625Z,2.20
2019-05-13T01:27:44.427Z,1.77
2019-05-13T01:30:13.840Z,1.87
2019-05-13T01:32:44.843Z,2.00
2019-05-13T01:35:14.953Z,1.40
2019-05-13T01:40:24.021Z,1.90
2019-05-13T01:45:30.501Z,1.37
2019-05-13T01:47:59.389Z,1.50
2019-05-13T01:50:28.399Z,1.57
2019-05-13T01:52:57.475Z,1.40
2019-05-13T01:55:26.498Z,1.57
2019-05-13T01:57:55.980Z,1.50
2019-05-13T02:03:05.328Z,1.67
2019-05-13T02:08:14.349Z,1.93
2019-05-13T02:13:34.320Z,2.00
2019-05-13T02:16:04.363Z,1.70
2019-05-13T02:18:34.133Z,1.67
2019-05-13T02:21:05.375Z,2.00
2019-05-13T02:26:14.291Z,1.83
2019-05-13T02:28:43.883Z,2.10
2019-05-13T02:31:18.879Z,1.70
2019-05-13T02:33:44.267Z,1.80
2019-05-13T02:38:53.161Z,1.63
2019-05-13T02:44:03.211Z,1.83
2019-05-13T02:46:33.733Z,1.67
2019-05-13T02:49:03.172Z,1.57
2019-05-13T02:51:32.942Z,1.67
2019-05-13T02:54:03.489Z,2.20
2019-05-13T02:56:33.266Z,1.83
2019-05-13T02:59:03.969Z,1.67
2019-05-13T03:01:34.143Z,1.80
2019-05-13T03:06:43.373Z,2.00
2019-05-13T03:11:48.905Z,1.70
2019-05-13T03:14:18.212Z,1.93
2019-05-13T03:16:53.302Z,1.60
2019-05-13T03:19:22.628Z,1.60
2019-05-13T03:21:53.506Z,1.70
2019-05-13T03:27:03.319Z,1.93
2019-05-13T03:29:33.085Z,1.57
2019-05-13T03:34:45.560Z,1.90
2019-05-13T03:37:15.459Z,1.90
2019-05-13T03:39:44.193Z,1.80
2019-05-13T03:42:13.651Z,1.90
2019-05-13T03:44:43.921Z,1.70
2019-05-13T03:47:13.244Z,1.77
2019-05-13T03:49:43.755Z,1.70
2019-05-13T03:54:58.079Z,2.10
2019-05-13T03:57:27.346Z,1.60
2019-05-13T03:59:56.496Z,2.10
2019-05-13T04:02:26.278Z,2.27
2019-05-13T04:04:58.962Z,1.90
2019-05-13T04:07:26.756Z,2.03
2019-05-13T04:09:55.966Z,2.10
2019-05-13T04:12:28.587Z,2.00
2019-05-13T04:17:42.524Z,1.90
2019-05-13T04:22:53.589Z,2.30
2019-05-13T04:28:09.378Z,1.57
2019-05-13T04:30:39.505Z,1.73
2019-05-13T04:33:12.954Z,2.00
2019-05-13T04:38:18.541Z,2.00
2019-05-13T04:43:25.310Z,1.90
2019-05-13T04:48:43.903Z,2.23
2019-05-13T04:51:13.583Z,1.80
2019-05-13T04:53:42.335Z,1.77
2019-05-13T04:56:13.670Z,1.97
2019-05-13T04:58:43.339Z,2.23
2019-05-13T05:02:14.407Z,2.80
2019-05-13T05:08:03.160Z,2.20
2019-05-13T05:11:38.499Z,2.30
2019-05-13T05:14:52.267Z,2.30
2019-05-13T05:18:02.583Z,1.97
2019-05-13T05:20:53.272Z,2.43
2019-05-13T05:24:22.626Z,2.40
2019-05-13T05:27:42.073Z,2.23
2019-05-13T05:30:52.797Z,2.43
2019-05-13T05:34:07.202Z,2.67
2019-05-13T05:37:31.436Z,2.63
2019-05-13T05:40:03.095Z,3.13
2019-05-13T05:42:34.743Z,2.23
2019-05-13T05:47:44.097Z,2.40
2019-05-13T05:50:13.018Z,1.80
2019-05-13T05:52:44.981Z,2.93
2019-05-13T05:55:14.134Z,2.53
2019-05-13T05:57:45.088Z,1.83
2019-05-13T06:00:14.337Z,2.37
2019-05-13T06:02:47.990Z,2.87
2019-05-13T06:05:16.975Z,3.03
2019-05-13T06:07:45.744Z,2.47
2019-05-13T06:10:14.737Z,2.63
2019-05-13T06:12:44.837Z,2.60
2019-05-13T06:15:13.971Z,2.27
2019-05-13T06:17:42.890Z,2.50
2019-05-13T06:20:13.446Z,2.70
2019-05-13T06:25:22.954Z,2.60
2019-05-13T06:27:51.207Z,2.47
2019-05-13T06:30:21.692Z,2.67
2019-05-13T06:32:52.473Z,2.40
2019-05-13T06:35:21.812Z,2.30
2019-05-13T06:40:31.883Z,2.07
2019-05-13T06:43:01.494Z,2.20
2019-05-13T06:45:31.705Z,2.10
2019-05-13T06:48:02.435Z,1.73
2019-05-13T06:50:32.309Z,2.43
2019-05-13T06:55:41.630Z,1.97
2019-05-13T06:58:11.393Z,2.40
2019-05-13T07:03:21.971Z,2.13
2019-05-13T07:05:52.602Z,2.60
2019-05-13T07:08:22.495Z,2.33
2019-05-13T07:10:51.607Z,1.93
2019-05-13T07:15:57.789Z,2.30
2019-05-13T07:18:26.414Z,2.87
2019-05-13T07:20:55.414Z,2.30
2019-05-13T07:23:24.582Z,2.20
2019-05-13T07:25:53.196Z,2.37
2019-05-13T07:31:02.330Z,2.33
2019-05-13T07:36:12.711Z,2.37
2019-05-13T07:38:42.527Z,2.30
2019-05-13T07:41:11.999Z,1.87
2019-05-13T07:46:18.816Z,1.90
2019-05-13T07:48:47.750Z,2.17
2019-05-13T07:53:54.236Z,3.00
2019-05-13T07:56:22.849Z,1.93
2019-05-13T07:58:52.404Z,2.23
2019-05-13T08:04:02.463Z,1.93
2019-05-13T08:06:32.517Z,1.60
2019-05-13T08:09:01.802Z,1.80
2019-05-13T08:11:36.885Z,2.10
2019-05-13T08:14:02.415Z,1.87
2019-05-13T08:16:32.361Z,1.60
2019-05-13T08:19:01.949Z,1.70
2019-05-13T08:24:08.781Z,1.70
2019-05-13T08:26:43.153Z,1.77
2019-05-13T08:29:08.381Z,1.43
2019-05-13T08:34:16.159Z,1.30
2019-05-13T08:36:45.248Z,1.50
2019-05-13T08:39:14.330Z,1.67
2019-05-13T08:41:43.199Z,1.30
2019-05-13T08:44:12.539Z,1.60
2019-05-13T08:46:41.643Z,1.40
2019-05-13T08:51:47.966Z,1.57
2019-05-13T08:56:55.416Z,1.50
2019-05-13T08:59:24.086Z,1.53
2019-05-13T09:01:53.063Z,1.57
2019-05-13T09:04:22.325Z,1.23
2019-05-13T09:06:52.398Z,1.27
2019-05-13T09:09:22.035Z,2.00
2019-05-13T09:11:51.642Z,1.37
2019-05-13T09:14:21.924Z,1.40
2019-05-13T09:16:52.564Z,1.20
2019-05-13T09:22:02.689Z,1.20
2019-05-13T09:24:36.658Z,1.43
2019-05-13T09:27:01.937Z,1.23
2019-05-13T09:29:32.124Z,1.00
2019-05-13T09:32:03.955Z,1.30
2019-05-13T09:34:32.979Z,1.00
2019-05-13T09:37:02.746Z,1.10
2019-05-13T09:39:32.382Z,1.10
2019-05-13T09:42:02.759Z,1.40
2019-05-13T09:44:32.953Z,1.23
2019-05-13T09:49:42.160Z,1.00
2019-05-13T09:52:11.999Z,1.20
2019-05-13T09:54:42.481Z,0.88
2019-05-13T09:57:12.346Z,1.17
2019-05-13T09:59:42.398Z,0.70
2019-05-13T10:02:12.487Z,1.00
2019-05-13T10:04:43.683Z,0.87
2019-05-13T10:07:12.588Z,0.90
2019-05-13T10:09:43.013Z,0.70
2019-05-13T10:12:12.444Z,0.70
2019-05-13T10:14:42.449Z,0.42
2019-05-13T10:17:13.126Z,0.87
2019-05-13T10:19:42.171Z,0.47
2019-05-13T10:22:12.011Z,0.50
2019-05-13T10:24:42.240Z,0.50
2019-05-13T10:27:12.360Z,0.60
2019-05-13T10:29:42.921Z,0.90
2019-05-13T10:32:12.098Z,0.70
2019-05-13T10:34:42.920Z,0.80
2019-05-13T10:37:12.520Z,0.60
2019-05-13T10:39:41.611Z,0.93
2019-05-13T10:42:12.025Z,0.68
2019-05-13T10:44:42.266Z,0.90
2019-05-13T10:47:12.030Z,0.72
2019-05-13T10:52:22.989Z,0.80
2019-05-13T10:57:31.843Z,0.70
2019-05-13T11:00:03.434Z,0.70
2019-05-13T11:05:14.192Z,0.90
2019-05-13T11:07:42.931Z,0.60
2019-05-13T11:10:14.384Z,0.90
2019-05-13T11:12:43.490Z,0.75
2019-05-13T11:15:13.571Z,1.00
2019-05-13T11:17:42.837Z,0.70
2019-05-13T11:20:12.446Z,0.78
2019-05-13T11:25:21.836Z,0.80
2019-05-13T11:27:52.457Z,0.70
2019-05-13T11:30:27.777Z,0.62
2019-05-13T11:35:34.130Z,0.88
2019-05-13T11:38:03.454Z,0.87
2019-05-13T11:40:32.190Z,1.10
2019-05-13T11:43:01.844Z,0.90
2019-05-13T11:45:31.564Z,0.60
2019-05-13T11:48:02.237Z,0.80
2019-05-13T11:50:31.363Z,0.80
2019-05-13T11:55:42.283Z,0.90
2019-05-13T11:58:13.922Z,0.90
2019-05-13T12:04:10.189Z,0.95
2019-05-13T12:06:45.918Z,0.80
2019-05-13T12:09:12.666Z,0.60
2019-05-13T12:11:40.282Z,0.78
2019-05-13T12:14:34.749Z,0.90
2019-05-13T12:19:18.556Z,0.88
2019-05-13T12:21:54.177Z,0.68
2019-05-13T12:24:22.765Z,0.68
2019-05-13T12:26:53.127Z,0.70
2019-05-13T12:29:22.090Z,0.90
2019-05-13T12:31:52.726Z,0.85
2019-05-13T12:34:23.010Z,0.70
2019-05-13T12:36:52.215Z,0.78
2019-05-13T12:39:23.906Z,0.90
2019-05-13T12:41:53.765Z,0.75
2019-05-13T12:44:23.137Z,0.80
2019-05-13T12:46:54.263Z,0.80
2019-05-13T12:49:31.465Z,0.90
2019-05-13T12:52:00.589Z,0.90
2019-05-13T12:54:26.190Z,0.70
2019-05-13T12:56:55.211Z,0.82
2019-05-13T12:59:23.942Z,0.80
2019-05-13T13:04:37.473Z,0.80
2019-05-13T13:07:06.401Z,0.60
2019-05-13T13:12:14.129Z,0.90
2019-05-13T13:14:44.286Z,1.07
2019-05-13T13:19:54.764Z,0.80
2019-05-13T13:22:25.382Z,0.62
2019-05-13T13:27:59.806Z,0.70
2019-05-13T13:32:46.421Z,0.80
2019-05-13T13:35:15.348Z,1.00
2019-05-13T13:37:45.940Z,0.90
2019-05-13T13:40:20.266Z,1.05
2019-05-13T13:42:46.194Z,1.10
2019-05-13T13:45:15.079Z,1.00
2019-05-13T13:47:45.685Z,0.82
2019-05-13T13:50:14.788Z,1.00
2019-05-13T13:55:25.772Z,1.23
2019-05-13T13:57:56.696Z,0.90
2019-05-13T14:00:38.182Z,1.00
2019-05-13T14:05:36.347Z,0.80
2019-05-13T14:08:05.684Z,1.00
2019-05-13T14:10:34.356Z,1.57
2019-05-13T14:13:04.864Z,1.10
2019-05-13T14:15:34.468Z,1.25
2019-05-13T14:18:03.550Z,1.00
2019-05-13T14:20:32.752Z,0.80
2019-05-13T14:23:02.737Z,1.50
2019-05-13T14:28:18.268Z,1.00
2019-05-13T14:30:47.010Z,1.00
2019-05-13T14:35:55.005Z,1.10
2019-05-13T14:38:24.820Z,0.90
2019-05-13T14:40:54.201Z,1.00
2019-05-13T14:43:23.541Z,1.10
2019-05-13T14:45:52.332Z,0.87
2019-05-13T14:48:22.324Z,1.37
2019-05-13T14:50:52.309Z,0.83
2019-05-13T14:53:21.479Z,1.10
2019-05-13T14:55:51.770Z,0.90
2019-05-13T15:01:11.203Z,0.90
2019-05-13T15:03:28.496Z,0.97
2019-05-13T15:05:57.671Z,1.07
2019-05-13T15:08:26.722Z,1.00
2019-05-13T15:13:36.378Z,1.00
2019-05-13T15:16:05.415Z,0.83
2019-05-13T15:18:34.334Z,0.80
2019-05-13T15:21:03.405Z,1.27
2019-05-13T15:23:32.199Z,0.80
2019-05-13T15:26:02.210Z,0.90
2019-05-13T15:31:16.706Z,0.73
2019-05-13T15:36:26.069Z,0.90
2019-05-13T15:38:54.719Z,1.20
2019-05-13T15:41:24.184Z,1.40
2019-05-13T15:43:53.105Z,1.10
2019-05-13T15:46:22.072Z,1.13
2019-05-13T15:48:51.502Z,1.20
2019-05-13T15:54:01.396Z,1.00
2019-05-13T15:56:31.262Z,0.83
2019-05-13T15:59:01.922Z,1.10
2019-05-13T16:01:30.215Z,1.00
2019-05-13T16:03:58.848Z,1.40
2019-05-13T16:06:28.184Z,1.20
2019-05-13T16:11:34.666Z,0.90
2019-05-13T16:14:03.427Z,1.00
2019-05-13T16:16:32.567Z,0.87
2019-05-13T16:19:01.329Z,0.93
2019-05-13T16:21:31.936Z,0.93
2019-05-13T16:24:02.552Z,0.90
2019-05-13T16:26:31.998Z,1.00
2019-05-13T16:31:43.262Z,1.00
2019-05-13T16:34:13.572Z,0.90
2019-05-13T16:36:43.281Z,0.90
2019-05-13T16:39:12.533Z,0.60
2019-05-13T16:44:22.425Z,0.87
2019-05-13T16:46:51.574Z,1.00
2019-05-13T16:51:58.157Z,1.10
2019-05-13T16:54:26.875Z,1.20
2019-05-13T16:56:55.642Z,1.67
2019-05-13T17:02:01.945Z,1.10
2019-05-13T17:04:32.144Z,1.20
2019-05-13T17:07:01.626Z,1.03
2019-05-13T17:09:32.301Z,1.00
2019-05-13T17:12:01.613Z,0.93
2019-05-13T17:17:07.832Z,0.80
2019-05-13T17:19:37.288Z,1.30
2019-05-13T17:24:45.731Z,1.10
2019-05-13T17:27:14.426Z,1.13
2019-05-13T17:29:43.244Z,1.20
2019-05-13T17:32:11.942Z,0.97
2019-05-13T17:34:43.584Z,1.40
2019-05-13T17:37:11.728Z,1.03
2019-05-13T17:39:41.523Z,1.10
2019-05-13T17:42:12.264Z,1.20
2019-05-13T17:44:45.884Z,1.47
2019-05-13T17:49:51.987Z,1.23
2019-05-13T17:52:22.119Z,1.40
2019-05-13T17:54:51.815Z,1.10
2019-05-13T17:57:21.590Z,1.33
2019-05-13T17:59:52.127Z,1.20
2019-05-13T18:02:20.901Z,2.40
2019-05-13T18:04:51.954Z,1.50
2019-05-13T18:07:21.482Z,1.30
2019-05-13T18:09:51.990Z,1.47
2019-05-13T18:12:22.329Z,1.20
2019-05-13T18:14:51.738Z,1.27
2019-05-13T18:17:21.536Z,0.97
2019-05-13T18:19:51.517Z,1.07
2019-05-13T18:25:02.612Z,1.10
2019-05-13T18:27:32.317Z,1.23
2019-05-13T18:30:02.135Z,1.20
2019-05-13T18:35:08.829Z,1.47
2019-05-13T18:37:37.909Z,1.00
2019-05-13T18:40:07.342Z,0.90
2019-05-13T18:45:13.650Z,1.17
2019-05-13T18:47:42.270Z,0.97
2019-05-13T18:50:11.628Z,0.90
2019-05-13T18:52:41.981Z,1.20
2019-05-13T18:55:12.411Z,1.10
2019-05-13T18:57:41.412Z,1.27
2019-05-13T19:00:11.725Z,1.10
2019-05-13T19:02:41.508Z,1.10
2019-05-13T19:05:11.981Z,0.90
2019-05-13T19:10:22.011Z,1.20
2019-05-13T19:15:31.757Z,0.80
2019-05-13T19:18:00.571Z,1.10
2019-05-13T19:20:31.217Z,0.90
2019-05-13T19:23:01.174Z,0.90
2019-05-13T19:25:31.399Z,1.10
2019-05-13T19:28:02.308Z,1.00
2019-05-13T19:33:17.403Z,0.87
2019-05-13T19:35:46.923Z,0.70
2019-05-13T19:38:16.410Z,1.03
2019-05-13T19:43:23.432Z,1.03
2019-05-13T19:45:52.142Z,0.87
2019-05-13T19:48:21.775Z,0.70
2019-05-13T19:50:52.144Z,1.00
2019-05-13T19:53:21.482Z,0.90
2019-05-13T19:55:52.004Z,0.80
2019-05-13T19:58:21.607Z,1.07
2019-05-13T20:03:33.226Z,0.80
2019-05-13T20:06:02.442Z,0.90
2019-05-13T20:08:32.087Z,1.77
2019-05-13T20:11:02.138Z,1.00
2019-05-13T20:13:31.419Z,1.10
2019-05-13T20:16:01.784Z,1.03
2019-05-13T20:18:32.010Z,1.00
2019-05-13T20:23:41.397Z,0.90
2019-05-13T20:26:10.670Z,1.00
2019-05-13T20:31:21.530Z,1.07
2019-05-13T20:33:51.580Z,1.13
2019-05-13T20:36:22.183Z,0.93
2019-05-13T20:38:51.623Z,0.93
2019-05-13T20:41:22.419Z,1.07
2019-05-13T20:43:52.105Z,0.93
2019-05-13T20:46:23.221Z,0.90
2019-05-13T20:48:52.127Z,0.90
2019-05-13T20:51:21.990Z,1.00
2019-05-13T20:53:51.801Z,1.00
2019-05-13T20:56:21.398Z,1.00
2019-05-13T20:58:51.597Z,1.10
2019-05-13T21:04:01.660Z,0.80
2019-05-13T21:06:31.573Z,1.10
2019-05-13T21:11:41.626Z,1.10
2019-05-13T21:14:10.029Z,1.00
2019-05-13T21:16:38.813Z,1.07
2019-05-13T21:19:07.573Z,0.90
2019-05-13T21:21:36.245Z,1.10
2019-05-13T21:26:45.956Z,1.10
2019-05-13T21:31:54.391Z,1.30
2019-05-13T21:34:23.714Z,1.17
2019-05-13T21:36:52.717Z,1.10
2019-05-13T21:39:23.487Z,1.00
2019-05-13T21:44:29.745Z,1.17
2019-05-13T21:46:59.386Z,1.40
2019-05-13T21:49:28.795Z,1.30
2019-05-13T21:51:57.886Z,1.00
2019-05-13T21:57:05.599Z,1.40
2019-05-13T21:59:34.297Z,1.17
2019-05-13T22:04:45.381Z,1.67
2019-05-13T22:07:14.144Z,1.40
2019-05-13T22:09:43.670Z,1.30
2019-05-13T22:12:13.394Z,1.40
2019-05-13T22:14:42.236Z,1.20
2019-05-13T22:17:12.278Z,1.40
2019-05-13T22:19:41.944Z,1.40
2019-05-13T22:22:11.624Z,1.23
2019-05-13T22:27:21.853Z,1.20
2019-05-13T22:32:35.645Z,1.17
2019-05-13T22:35:04.904Z,1.10
2019-05-13T22:37:33.572Z,1.50
2019-05-13T22:42:43.545Z,1.50
2019-05-13T22:45:12.522Z,1.50
2019-05-13T22:47:41.888Z,1.47
2019-05-13T22:50:12.198Z,1.60
2019-05-13T22:52:42.018Z,1.70
2019-05-13T22:55:11.470Z,1.40
2019-05-13T22:57:41.910Z,1.50
2019-05-13T23:02:57.137Z,1.50
2019-05-13T23:08:04.438Z,1.37
2019-05-13T23:13:10.695Z,1.47
2019-05-13T23:15:39.357Z,1.27
2019-05-13T23:18:08.537Z,1.80
2019-05-13T23:20:37.702Z,1.50
2019-05-13T23:23:07.208Z,1.30
2019-05-13T23:28:14.864Z,1.50
2019-05-13T23:33:24.725Z,1.40
2019-05-13T23:35:53.421Z,1.40
2019-05-13T23:41:06.878Z,1.60
2019-05-13T23:43:35.481Z,1.77
2019-05-13T23:46:04.335Z,1.90
2019-05-13T23:48:33.140Z,1.67
2019-05-13T23:51:01.813Z,1.50
2019-05-13T23:56:08.010Z,1.70
2019-05-13T23:58:37.042Z,1.60
